Old Windsor, United Kingdom
Current Conditions -  °F | °C
As of 12:20 PM on Thursday 30 Oct 2014 (Local Time) from EGLL Reporting Station
Broken Clouds Broken Clouds  
Wind Chill: 63°   Ceiling: 1600
Heat Index: 63°   Visibility: 6mi
Dew Point: 57°   Wind: 10mph
Humidity: 82%   Direction: 240°WSW
Pressure: 30.09"   Gusts: NA
Location:  51.46°N, 0.59°W
Report Text: EGLL 301220Z 24009KT 9000 BKN016 17/14 Q1019
Loading
Personal Weather Stations






























Interactive Weather Map
Tropical Storm Tracking
New forecast layout! Learn more

10-Day Weather Forecast

Advertisements
Track Severe Weather on mobile